Time;durP1;ratioP1;P1;durP2;ratioP2;P2;SDS_P1;SDS_P2;PMS_P1;PMS_P2;Temp;Humidity;BMP_temperature;BMP_pressure;BME280_temperature;BME280_humidity;BME280_pressure;Samples;Min_cycle;Max_cycle;Signal;HPM_P1;HPM_P2
2022/09/10 00:01:22;;;;;;;10.70;7.50;;;;;;;21.33;64.08;95368.38;5024549;28;20032;-80
2022/09/10 00:03:48;;;;;;;14.23;7.20;;;;;;;21.27;63.90;95371.28;5008392;28;20029;-80
2022/09/10 00:06:14;;;;;;;12.05;7.20;;;;;;;21.19;64.81;95369.78;5008599;28;20412;-80
2022/09/10 00:08:40;;;;;;;12.80;7.72;;;;;;;21.20;64.81;95382.38;5007484;28;20246;-80
2022/09/10 00:11:07;;;;;;;13.50;7.95;;;;;;;21.23;64.57;95379.16;5026614;28;20029;-79
2022/09/10 00:13:32;;;;;;;13.80;8.05;;;;;;;21.21;64.57;95375.81;5023787;28;20061;-81
2022/09/10 00:16:00;;;;;;;13.90;8.13;;;;;;;21.29;64.24;95369.97;5024989;28;20033;-80
2022/09/10 00:18:25;;;;;;;12.65;8.30;;;;;;;21.30;63.91;95379.78;5007306;28;20041;-80
2022/09/10 00:20:53;;;;;;;17.63;7.57;;;;;;;21.31;64.38;95383.34;5008045;28;20393;-80
2022/09/10 00:23:21;;;;;;;12.85;7.45;;;;;;;21.28;64.92;95397.50;5008179;28;20120;-80
2022/09/10 00:25:47;;;;;;;10.55;7.28;;;;;;;21.29;64.99;95399.13;5007565;28;20067;-80
2022/09/10 00:28:13;;;;;;;14.52;8.27;;;;;;;21.24;64.66;95395.25;5024981;28;20037;-80
2022/09/10 00:30:43;;;;;;;12.35;9.15;;;;;;;21.21;64.60;95389.47;5023419;28;20030;-80
2022/09/10 00:33:09;;;;;;;16.45;8.57;;;;;;;21.24;63.91;95386.25;5025119;28;20030;-80
2022/09/10 00:35:34;;;;;;;11.48;8.27;;;;;;;21.21;63.78;95384.84;5007381;28;20056;-81
2022/09/10 00:38:00;;;;;;;15.95;8.68;;;;;;;21.16;64.70;95379.28;5007989;28;20504;-80
2022/09/10 00:40:25;;;;;;;11.75;8.65;;;;;;;21.27;64.63;95393.09;5008013;28;20022;-80
2022/09/10 00:42:51;;;;;;;11.98;8.30;;;;;;;21.26;64.35;95392.28;5006431;28;20503;-80
2022/09/10 00:45:24;;;;;;;13.77;8.13;;;;;;;21.19;64.02;95388.88;5025676;28;20029;-80
2022/09/10 00:47:50;;;;;;;13.35;8.65;;;;;;;21.15;64.02;95380.34;5023040;28;20038;-80
2022/09/10 00:50:24;;;;;;;12.93;8.35;;;;;;;21.19;63.84;95377.97;5008318;28;20112;-80
2022/09/10 00:52:55;;;;;;;11.32;8.13;;;;;;;21.16;64.51;95371.13;5007691;28;20044;-80
2022/09/10 00:55:20;;;;;;;16.17;8.27;;;;;;;21.21;63.85;95384.00;5007800;28;20025;-80
2022/09/10 00:57:46;;;;;;;10.38;8.45;;;;;;;21.15;63.85;95374.91;5007299;28;20104;-79
2022/09/10 01:00:12;;;;;;;15.52;9.35;;;;;;;21.16;63.70;95375.72;5007064;28;20078;-79
2022/09/10 01:02:38;;;;;;;9.30;7.75;;;;;;;21.14;64.46;95369.69;5024005;28;20035;-80
2022/09/10 01:05:04;;;;;;;10.93;7.25;;;;;;;21.22;64.12;95363.84;5023195;28;20025;-79
2022/09/10 01:07:30;;;;;;;12.80;7.97;;;;;;;21.21;63.99;95370.38;5008005;28;20407;-80
2022/09/10 01:09:59;;;;;;;12.35;8.07;;;;;;;21.18;64.37;95373.59;5022828;28;20025;-79
2022/09/10 01:12:46;;;;;;;14.68;8.10;;;;;;;21.17;63.76;95370.03;5007823;28;20411;-80
2022/09/10 01:15:24;;;;;;;13.68;7.53;;;;;;;21.12;63.86;95370.78;5025094;28;20033;-80
2022/09/10 01:18:02;;;;;;;15.25;7.97;;;;;;;21.07;64.74;95364.41;5006068;28;20530;-80
2022/09/10 01:20:39;;;;;;;10.65;7.80;;;;;;;21.07;64.60;95361.69;5024298;28;20033;-80
2022/09/10 01:23:27;;;;;;;11.88;8.10;;;;;;;21.09;64.50;95354.91;5007407;28;20034;-80
2022/09/10 01:26:37;;;;;;;13.75;8.43;;;;;;;21.06;64.31;95354.56;5024512;28;20403;-80
2022/09/10 01:29:23;;;;;;;11.63;7.72;;;;;;;21.06;64.07;95349.94;5024125;28;20045;-80
2022/09/10 01:32:00;;;;;;;8.90;7.50;;;;;;;21.05;64.37;95342.84;5008293;28;20017;-80
2022/09/10 01:34:49;;;;;;;11.48;7.93;;;;;;;21.05;64.64;95336.56;5023529;28;20068;-79
2022/09/10 01:37:27;;;;;;;17.30;8.32;;;;;;;21.06;64.27;95339.03;5024030;28;20076;-79
2022/09/10 01:39:52;;;;;;;11.43;7.72;;;;;;;21.06;64.56;95352.69;5022516;28;20032;-79
2022/09/10 01:42:18;;;;;;;12.65;7.60;;;;;;;21.03;64.41;95339.53;5007780;28;20238;-79
2022/09/10 01:44:48;;;;;;;13.43;8.23;;;;;;;21.02;64.97;95337.91;5023065;28;20022;-81
2022/09/10 01:47:35;;;;;;;9.27;7.75;;;;;;;20.98;65.34;95343.00;5023567;28;20378;-79
2022/09/10 01:50:06;;;;;;;10.38;7.20;;;;;;;20.99;64.87;95343.81;5024582;28;20030;-79
2022/09/10 01:52:44;;;;;;;13.02;7.57;;;;;;;20.92;65.60;95343.16;5024078;28;20095;-79
2022/09/10 01:55:14;;;;;;;13.52;7.90;;;;;;;20.96;65.55;95355.19;5027161;28;20035;-79
2022/09/10 01:57:51;;;;;;;11.52;7.90;;;;;;;20.95;65.33;95351.66;5026614;28;20133;-79
2022/09/10 02:00:17;;;;;;;11.10;8.32;;;;;;;20.96;64.94;95360.66;5027354;28;20517;-79
2022/09/10 02:02:57;;;;;;;10.95;7.97;;;;;;;20.89;65.14;95360.81;5010915;28;20112;-79
2022/09/10 02:05:23;;;;;;;14.57;7.75;;;;;;;20.78;65.35;95373.38;5010310;28;20025;-79
2022/09/10 02:07:49;;;;;;;11.30;7.82;;;;;;;20.75;65.64;95380.16;5011333;28;20025;-80
2022/09/10 02:10:14;;;;;;;13.07;8.55;;;;;;;20.78;65.81;95380.75;4993259;28;20499;-80
2022/09/10 02:12:40;;;;;;;11.82;8.05;;;;;;;20.73;65.66;95376.03;5027536;28;20469;-79
2022/09/10 02:15:07;;;;;;;16.38;7.90;;;;;;;20.75;65.57;95365.69;5026331;28;20068;-79
2022/09/10 02:17:36;;;;;;;11.35;8.40;;;;;;;20.74;65.96;95350.44;5010402;28;20099;-79
2022/09/10 02:20:03;;;;;;;12.23;8.88;;;;;;;20.80;65.77;95365.81;4993835;28;20026;-79
2022/09/10 02:22:30;;;;;;;16.25;9.25;;;;;;;20.73;66.10;95367.88;5026291;28;20103;-80
2022/09/10 02:24:56;;;;;;;10.82;7.85;;;;;;;20.66;66.27;95361.72;5027376;28;20098;-79
2022/09/10 02:27:22;;;;;;;12.63;7.97;;;;;;;20.55;66.57;95361.53;5009243;28;20033;-79
2022/09/10 02:29:48;;;;;;;11.57;7.85;;;;;;;20.46;66.56;95357.50;5011094;28;20041;-79
2022/09/10 02:32:14;;;;;;;11.15;8.55;;;;;;;20.50;66.96;95361.44;5025698;28;20025;-79
2022/09/10 02:34:39;;;;;;;14.23;8.43;;;;;;;20.53;66.79;95347.31;5010409;28;20464;-79
2022/09/10 02:37:04;;;;;;;9.85;7.93;;;;;;;20.67;66.50;95360.66;5009620;28;20021;-79
2022/09/10 02:39:30;;;;;;;11.25;8.35;;;;;;;20.56;66.22;95367.78;5009951;28;20492;-79
2022/09/10 02:41:57;;;;;;;14.15;8.48;;;;;;;20.57;66.38;95370.28;5026634;28;20489;-80
2022/09/10 02:44:22;;;;;;;14.00;8.10;;;;;;;20.59;66.38;95372.75;5025578;28;20021;-80
2022/09/10 02:46:48;;;;;;;11.18;8.43;;;;;;;20.63;66.15;95372.03;5028332;28;20404;-80
2022/09/10 02:49:13;;;;;;;13.02;8.85;;;;;;;20.68;65.97;95368.59;5026615;28;20040;-80
2022/09/10 02:51:41;;;;;;;14.75;8.18;;;;;;;20.63;66.24;95363.84;5010484;28;20410;-80
2022/09/10 02:54:06;;;;;;;12.43;8.57;;;;;;;20.67;66.53;95368.84;5025544;28;20056;-80
2022/09/10 02:56:32;;;;;;;14.25;8.45;;;;;;;20.66;66.53;95372.63;5009729;28;20029;-80
2022/09/10 02:58:57;;;;;;;14.73;8.35;;;;;;;20.60;66.52;95375.22;5026086;28;20037;-79
2022/09/10 03:01:23;;;;;;;13.05;8.65;;;;;;;20.60;66.44;95369.78;5025486;28;20021;-80
2022/09/10 03:03:49;;;;;;;13.85;8.75;;;;;;;20.59;66.13;95373.59;5010232;28;20041;-79
2022/09/10 03:06:15;;;;;;;10.73;8.10;;;;;;;20.63;66.35;95371.22;5007504;28;20405;-79
2022/09/10 03:08:40;;;;;;;13.20;9.02;;;;;;;20.60;66.28;95369.78;5026511;28;20523;-79
2022/09/10 03:11:06;;;;;;;14.18;8.75;;;;;;;20.60;66.03;95375.22;5008948;28;20488;-79
2022/09/10 03:13:32;;;;;;;11.32;8.70;;;;;;;20.59;66.89;95372.75;5009754;28;20033;-80
2022/09/10 03:15:57;;;;;;;10.93;7.70;;;;;;;20.57;66.98;95370.28;5026639;28;20111;-79
2022/09/10 03:18:23;;;;;;;12.07;9.13;;;;;;;20.60;66.51;95367.06;5026796;28;20037;-80
2022/09/10 03:20:49;;;;;;;12.57;8.48;;;;;;;20.60;66.23;95369.78;5027642;28;20103;-80
2022/09/10 03:23:15;;;;;;;9.75;8.52;;;;;;;20.56;66.74;95368.63;5024820;28;20472;-79
2022/09/10 03:25:40;;;;;;;10.35;8.52;;;;;;;20.58;66.17;95365.66;5009890;28;20503;-80
2022/09/10 03:28:06;;;;;;;15.35;8.70;;;;;;;20.60;66.45;95360.81;5024812;28;20067;-80
2022/09/10 03:30:31;;;;;;;12.60;8.27;;;;;;;20.61;66.50;95346.09;5025918;28;20025;-80
2022/09/10 03:32:57;;;;;;;13.43;8.32;;;;;;;20.64;66.18;95348.34;5026828;28;20025;-80
2022/09/10 03:35:22;;;;;;;14.98;9.15;;;;;;;20.63;66.48;95335.78;5008850;28;20040;-80
2022/09/10 03:37:48;;;;;;;10.88;8.63;;;;;;;20.67;66.58;95338.88;5026733;28;20025;-79
2022/09/10 03:40:14;;;;;;;13.70;7.93;;;;;;;20.55;66.80;95333.47;5026233;28;20025;-81
2022/09/10 03:42:41;;;;;;;10.45;8.30;;;;;;;20.49;67.05;95346.97;5025510;28;20059;-79
2022/09/10 03:45:07;;;;;;;13.57;7.93;;;;;;;20.55;66.69;95355.25;5008273;28;20025;-79
2022/09/10 03:47:32;;;;;;;11.55;8.43;;;;;;;20.55;66.85;95356.09;5025585;28;20106;-80
2022/09/10 03:49:58;;;;;;;12.98;8.02;;;;;;;20.58;67.21;95352.88;5025788;28;20036;-80
2022/09/10 03:52:25;;;;;;;15.32;8.13;;;;;;;20.57;66.87;95353.13;5026535;28;20495;-80
2022/09/10 03:54:50;;;;;;;12.18;8.30;;;;;;;20.59;66.87;95340.06;5008468;28;20385;-80
2022/09/10 03:57:16;;;;;;;9.30;8.25;;;;;;;20.62;66.91;95342.28;5026302;28;20075;-80
2022/09/10 03:59:41;;;;;;;14.70;8.52;;;;;;;20.63;67.02;95336.59;5024915;28;20044;-80
2022/09/10 04:02:08;;;;;;;13.15;8.27;;;;;;;20.57;66.55;95340.31;5007850;28;20040;-80
2022/09/10 04:04:36;;;;;;;11.68;8.15;;;;;;;20.46;66.89;95339.28;5026557;28;20021;-80
2022/09/10 04:07:01;;;;;;;15.25;8.60;;;;;;;20.43;66.80;95333.50;5025184;28;20029;-80
2022/09/10 04:09:27;;;;;;;12.63;8.70;;;;;;;20.40;66.99;95342.16;5008916;28;20037;-80
2022/09/10 04:11:53;;;;;;;14.30;8.30;;;;;;;20.47;66.89;95337.41;5025839;28;20495;-80
2022/09/10 04:14:18;;;;;;;14.55;8.68;;;;;;;20.38;67.08;95345.09;5026143;28;20034;-79
2022/09/10 04:16:44;;;;;;;15.75;8.35;;;;;;;20.45;67.28;95342.25;5025518;28;20037;-80
2022/09/10 04:19:09;;;;;;;15.10;9.27;;;;;;;20.43;67.52;95347.09;5023016;28;20037;-79
2022/09/10 04:21:35;;;;;;;10.63;8.00;;;;;;;20.46;67.48;95354.78;5024689;28;20080;-81
2022/09/10 04:24:00;;;;;;;18.48;8.73;;;;;;;20.43;67.21;95374.34;5007411;28;20030;-80
2022/09/10 04:26:26;;;;;;;9.73;8.07;;;;;;;20.48;66.58;95371.72;5008820;28;20021;-80
2022/09/10 04:28:52;;;;;;;10.73;8.07;;;;;;;20.49;66.72;95376.13;5023575;28;20075;-80
2022/09/10 04:31:17;;;;;;;14.77;8.80;;;;;;;20.44;66.97;95384.19;5026267;28;20534;-80
2022/09/10 04:33:43;;;;;;;10.57;8.35;;;;;;;20.43;66.77;95385.22;5007481;28;20029;-80
2022/09/10 04:36:09;;;;;;;10.93;8.32;;;;;;;20.44;67.50;95379.53;4991691;28;20030;-80
2022/09/10 04:38:38;;;;;;;13.05;9.23;;;;;;;20.50;67.08;95370.44;4991352;28;20029;-79
2022/09/10 04:41:04;;;;;;;12.23;8.52;;;;;;;20.53;66.46;95366.38;5023610;28;20063;-81
2022/09/10 04:43:29;;;;;;;13.95;9.30;;;;;;;20.51;66.22;95363.06;5024881;28;20021;-80
2022/09/10 04:45:55;;;;;;;16.38;8.55;;;;;;;20.45;66.50;95356.72;5006675;28;20026;-80
2022/09/10 04:48:21;;;;;;;13.32;8.30;;;;;;;20.49;66.60;95349.69;5008231;28;20033;-80
2022/09/10 04:50:47;;;;;;;11.20;8.18;;;;;;;20.47;66.71;95337.41;5006936;28;20491;-79
2022/09/10 04:53:13;;;;;;;10.10;8.00;;;;;;;20.57;66.58;95331.31;5024098;28;20479;-79
2022/09/10 04:55:39;;;;;;;10.82;8.05;;;;;;;20.56;66.40;95325.03;5007814;28;20059;-82
2022/09/10 04:58:04;;;;;;;10.63;8.40;;;;;;;20.51;66.81;95327.66;5006897;28;20025;-79
2022/09/10 05:00:30;;;;;;;10.15;8.38;;;;;;;20.52;66.48;95333.94;5024200;28;20464;-79
2022/09/10 05:02:56;;;;;;;12.25;8.30;;;;;;;20.58;66.74;95349.31;5006662;28;20559;-80
2022/09/10 05:05:21;;;;;;;12.27;8.38;;;;;;;20.63;66.75;95350.22;5024417;28;20029;-81
2022/09/10 05:07:47;;;;;;;13.25;9.10;;;;;;;20.57;66.73;95353.13;5022762;28;20029;-80
2022/09/10 05:10:14;;;;;;;13.52;8.60;;;;;;;20.55;66.94;95357.97;5025630;28;20076;-80
2022/09/10 05:12:39;;;;;;;12.65;8.52;;;;;;;20.59;66.75;95357.25;5024897;28;20032;-80
2022/09/10 05:15:05;;;;;;;9.88;7.82;;;;;;;20.69;66.66;95369.41;4990638;28;20045;-80
2022/09/10 05:17:32;;;;;;;12.70;8.70;;;;;;;20.63;66.95;95372.03;5024757;28;20363;-79
2022/09/10 05:19:57;;;;;;;10.13;8.95;;;;;;;20.68;66.20;95381.38;5024242;28;20026;-81
2022/09/10 05:22:23;;;;;;;13.63;9.63;;;;;;;20.66;66.26;95376.19;5026807;28;20024;-77
2022/09/10 05:24:49;;;;;;;13.65;8.98;;;;;;;20.69;65.79;95383.88;5025002;28;20037;-80
2022/09/10 05:27:15;;;;;;;12.52;9.25;;;;;;;20.72;65.60;95382.53;5024112;28;20029;-79
2022/09/10 05:29:41;;;;;;;16.15;10.98;;;;;;;20.82;66.87;95371.84;5022721;28;20022;-80
2022/09/10 05:32:08;;;;;;;14.90;8.95;;;;;;;20.70;66.77;95368.34;5007135;28;20029;-80
2022/09/10 05:34:33;;;;;;;23.85;8.90;;;;;;;20.76;66.47;95372.81;5007168;28;20087;-80
2022/09/10 05:36:59;;;;;;;21.58;9.95;;;;;;;20.71;66.88;95376.28;5024132;28;20025;-80
2022/09/10 05:39:24;;;;;;;29.77;8.70;;;;;;;20.67;67.16;95369.66;5023776;28;20528;-80
2022/09/10 05:41:50;;;;;;;21.13;10.23;;;;;;;20.71;67.29;95370.84;5022769;28;20488;-80
2022/09/10 05:44:16;;;;;;;16.55;9.07;;;;;;;20.60;67.97;95368.97;5007300;28;20476;-79
2022/09/10 05:46:41;;;;;;;19.95;9.50;;;;;;;20.50;67.97;95370.44;5023949;28;20444;-79
2022/09/10 05:49:07;;;;;;;25.63;9.73;;;;;;;20.48;68.66;95374.44;5023839;28;20528;-79
2022/09/10 05:51:33;;;;;;;16.30;9.45;;;;;;;20.53;68.54;95380.00;5022899;28;20030;-80
2022/09/10 05:53:59;;;;;;;15.82;8.90;;;;;;;20.61;68.35;95371.47;5022891;28;20029;-80
2022/09/10 05:56:24;;;;;;;12.48;8.75;;;;;;;20.66;67.42;95372.63;5023244;28;20021;-80
2022/09/10 05:58:50;;;;;;;12.27;8.60;;;;;;;20.68;67.28;95367.75;5022451;28;20420;-79
2022/09/10 06:01:15;;;;;;;10.13;8.55;;;;;;;20.86;67.07;95380.38;5024949;28;20028;-80
2022/09/10 06:03:41;;;;;;;13.02;8.48;;;;;;;21.06;66.15;95377.22;5022378;28;20376;-80
2022/09/10 06:06:07;;;;;;;15.50;8.85;;;;;;;21.26;66.05;95370.47;5024813;28;20026;-80
2022/09/10 06:08:32;;;;;;;16.55;8.98;;;;;;;21.48;65.03;95372.44;5005917;28;20060;-80
2022/09/10 06:11:03;;;;;;;10.70;9.15;;;;;;;21.65;64.16;95366.97;5023208;28;20068;-80
2022/09/10 06:13:29;;;;;;;11.32;8.50;;;;;;;21.46;64.64;95367.25;5007525;28;20033;-80
2022/09/10 06:15:54;;;;;;;13.43;8.38;;;;;;;21.42;64.14;95365.25;5005893;28;20037;-80
2022/09/10 06:18:21;;;;;;;14.43;8.18;;;;;;;21.41;64.43;95361.69;5022861;28;20029;-80
2022/09/10 06:20:49;;;;;;;16.63;8.13;;;;;;;21.47;64.53;95362.63;5023401;28;20025;-80
2022/09/10 06:23:18;;;;;;;18.23;8.40;;;;;;;21.48;64.19;95361.53;5023218;28;20033;-82
2022/09/10 06:25:43;;;;;;;11.00;8.30;;;;;;;21.52;63.83;95357.25;5022236;28;20617;-80
2022/09/10 06:28:09;;;;;;;11.70;8.18;;;;;;;21.47;64.21;95368.06;5006705;28;20034;-80
2022/09/10 06:30:35;;;;;;;9.52;8.52;;;;;;;21.59;63.33;95349.72;5022641;28;20049;-81
2022/09/10 06:33:00;;;;;;;12.93;8.30;;;;;;;21.54;63.04;95346.91;5023958;28;20025;-80
2022/09/10 06:35:26;;;;;;;9.88;8.38;;;;;;;21.60;62.67;95362.25;5024096;28;20025;-81
2022/09/10 06:37:53;;;;;;;12.60;8.70;;;;;;;21.56;62.68;95352.09;5022023;28;20451;-80
2022/09/10 06:40:18;;;;;;;10.55;8.85;;;;;;;21.57;62.84;95359.22;5006844;28;20423;-79
2022/09/10 06:42:44;;;;;;;10.07;8.32;;;;;;;21.74;61.79;95357.31;5024850;28;20109;-81
2022/09/10 06:45:09;;;;;;;10.60;7.90;;;;;;;21.64;62.86;95353.56;5010573;28;20032;-80
2022/09/10 06:47:35;;;;;;;10.65;8.23;;;;;;;21.61;62.33;95363.09;5025551;28;20231;-81
2022/09/10 06:50:00;;;;;;;12.80;8.95;;;;;;;21.67;62.31;95359.38;5009712;28;20087;-80
2022/09/10 06:52:28;;;;;;;10.90;8.50;;;;;;;21.74;61.86;95361.94;5025763;28;20026;-79
2022/09/10 06:54:53;;;;;;;11.48;9.05;;;;;;;21.85;61.08;95350.13;5025417;28;20465;-79
2022/09/10 06:57:18;;;;;;;10.75;8.95;;;;;;;21.84;61.26;95344.91;5026211;28;20025;-80
2022/09/10 06:59:44;;;;;;;12.05;9.25;;;;;;;21.98;60.86;95354.41;5008882;28;20052;-80
2022/09/10 07:02:09;;;;;;;13.18;10.50;;;;;;;22.14;59.25;95351.88;5010258;28;20076;-81
2022/09/10 07:04:35;;;;;;;11.38;9.98;;;;;;;22.17;60.11;95355.97;5026718;28;20428;-82
2022/09/10 07:07:01;;;;;;;10.82;9.40;;;;;;;22.37;58.21;95360.06;5026985;28;20021;-80
2022/09/10 07:09:26;;;;;;;11.40;9.23;;;;;;;22.56;57.55;95347.72;5026840;28;20025;-80
2022/09/10 07:11:52;;;;;;;13.57;9.40;;;;;;;22.74;58.83;95351.25;5027660;28;20558;-80
2022/09/10 07:14:18;;;;;;;18.45;9.52;;;;;;;22.93;57.66;95353.59;5027709;28;20083;-81
2022/09/10 07:16:44;;;;;;;15.68;9.63;;;;;;;22.94;57.23;95347.06;5008455;28;20106;-80
2022/09/10 07:19:10;;;;;;;12.63;9.32;;;;;;;23.04;56.84;95351.78;5026329;28;20152;-80
2022/09/10 07:21:36;;;;;;;16.85;10.00;;;;;;;23.22;56.79;95358.81;5025001;28;20075;-80
2022/09/10 07:24:02;;;;;;;14.27;9.05;;;;;;;23.27;56.28;95349.81;5027507;28;20393;-80
2022/09/10 07:26:27;;;;;;;13.70;8.98;;;;;;;23.29;56.28;95359.44;5024967;28;20029;-80
2022/09/10 07:28:53;;;;;;;13.68;9.05;;;;;;;23.53;56.10;95359.09;5009410;28;20064;-80
2022/09/10 07:31:20;;;;;;;11.30;9.50;;;;;;;23.50;55.42;95362.38;5009114;28;20064;-80
2022/09/10 07:33:46;;;;;;;14.95;9.88;;;;;;;23.31;55.90;95356.44;5024775;28;20026;-80
2022/09/10 07:36:12;;;;;;;17.45;9.07;;;;;;;23.30;56.02;95365.72;5025655;28;20041;-79
2022/09/10 07:38:38;;;;;;;11.82;8.68;;;;;;;23.65;55.48;95356.16;5008056;28;20634;-81
2022/09/10 07:41:04;;;;;;;10.88;8.55;;;;;;;23.97;54.07;95346.25;4993446;28;20026;-81
2022/09/10 07:43:29;;;;;;;15.35;8.85;;;;;;;24.13;53.99;95357.28;5008018;28;20026;-81
2022/09/10 07:45:55;;;;;;;16.20;8.77;;;;;;;24.22;53.63;95363.94;5027086;28;20034;-82
2022/09/10 07:48:20;;;;;;;10.20;7.90;;;;;;;24.22;53.33;95363.94;5008574;28;20030;-81
2022/09/10 07:50:45;;;;;;;12.48;8.63;;;;;;;24.32;53.79;95360.44;5025189;28;20022;-80
2022/09/10 07:53:11;;;;;;;12.07;8.18;;;;;;;24.59;52.76;95361.34;5026226;28;20028;-82
2022/09/10 07:55:36;;;;;;;11.88;8.38;;;;;;;24.72;52.36;95360.03;5024384;28;20026;-81
2022/09/10 07:58:02;;;;;;;15.70;8.05;;;;;;;24.92;50.40;95364.78;5027034;28;20105;-80
2022/09/10 08:00:28;;;;;;;8.93;7.85;;;;;;;24.63;51.31;95354.25;5024178;28;20021;-81
2022/09/10 08:02:53;;;;;;;13.75;8.32;;;;;;;24.47;51.71;95350.63;5025386;28;20488;-80
2022/09/10 08:05:18;;;;;;;13.05;7.82;;;;;;;24.63;51.75;95357.81;5024546;28;20033;-81
2022/09/10 08:07:44;;;;;;;11.32;8.38;;;;;;;24.62;51.95;95358.91;5025149;28;20033;-80
2022/09/10 08:10:09;;;;;;;12.65;8.25;;;;;;;24.64;51.48;95359.47;5026197;28;20041;-80
2022/09/10 08:12:36;;;;;;;15.38;9.57;;;;;;;25.04;52.50;95357.13;5024512;28;20037;-81
2022/09/10 08:15:02;;;;;;;15.65;8.50;;;;;;;25.16;50.65;95359.63;5024906;28;20029;-81
2022/09/10 08:17:28;;;;;;;10.00;7.70;;;;;;;25.09;50.97;95355.47;5023750;28;20432;-81
2022/09/10 08:19:54;;;;;;;13.25;8.20;;;;;;;25.08;50.96;95349.19;5025185;28;20494;-80
2022/09/10 08:22:19;;;;;;;17.30;9.70;;;;;;;24.96;51.95;95348.59;5025199;28;20033;-80
2022/09/10 08:24:47;;;;;;;13.77;7.95;;;;;;;25.33;50.41;95344.00;5025141;28;20030;-81
2022/09/10 08:27:13;;;;;;;15.18;8.35;;;;;;;25.37;50.70;95339.59;5024303;28;20128;-80
2022/09/10 08:29:38;;;;;;;13.07;8.07;;;;;;;25.46;50.72;95331.63;5024710;28;20033;-80
2022/09/10 08:32:04;;;;;;;11.02;8.10;;;;;;;25.59;50.35;95325.56;5008034;28;20477;-80
2022/09/10 08:34:29;;;;;;;12.43;8.80;;;;;;;25.62;49.57;95319.56;5025281;28;20396;-80
2022/09/10 08:36:56;;;;;;;10.45;8.13;;;;;;;25.75;50.04;95325.59;5024710;28;20036;-82
2022/09/10 08:39:21;;;;;;;13.55;8.98;;;;;;;25.95;49.17;95326.66;5023803;28;20030;-80
2022/09/10 08:41:56;;;;;;;11.77;8.48;;;;;;;25.82;48.96;95322.56;5026061;28;20454;-80
2022/09/10 08:44:26;;;;;;;16.52;8.95;;;;;;;25.71;50.00;95327.25;5023665;28;20562;-82
2022/09/10 08:47:09;;;;;;;15.95;8.25;;;;;;;25.28;51.38;95331.91;5025457;28;20397;-81
2022/09/10 08:49:53;;;;;;;;;;;;;;;24.98;51.99;95319.81;5025038;28;20025;-80
2022/09/10 08:52:40;;;;;;;9.88;8.05;;;;;;;25.16;52.78;95328.59;5023375;28;19940;-80
2022/09/10 08:55:18;;;;;;;13.07;8.18;;;;;;;25.37;51.44;95331.34;5025666;28;20507;-79
2022/09/10 08:57:46;;;;;;;14.43;8.60;;;;;;;25.47;51.23;95322.31;5023774;28;20022;-80
2022/09/10 09:00:33;;;;;;;16.30;7.97;;;;;;;25.61;49.81;95319.81;5025070;28;20033;-80
2022/09/10 09:03:16;;;;;;;11.15;8.10;;;;;;;25.61;50.47;95325.31;5024429;28;20041;-81
2022/09/10 09:06:00;;;;;;;;;;;;;;;25.40;51.06;95325.31;5023502;28;20515;-80
2022/09/10 09:08:28;;;;;;;12.45;8.38;;;;;;;25.53;51.90;95330.25;5024550;28;19912;-81
2022/09/10 09:11:06;;;;;;;14.18;8.45;;;;;;;25.68;50.27;95315.72;5007675;28;20021;-80
2022/09/10 09:14:09;;;;;;;12.30;8.23;;;;;;;25.59;50.27;95311.03;5024919;28;20025;-81
2022/09/10 09:16:42;;;;;;;11.82;8.68;;;;;;;25.49;50.64;95304.44;5025750;28;20045;-80
2022/09/10 09:19:30;;;;;;;13.77;9.18;;;;;;;25.47;51.18;95297.59;5023263;28;20495;-81
2022/09/10 09:22:06;;;;;;;13.27;7.93;;;;;;;25.47;50.23;95287.41;5024782;28;20112;-80
2022/09/10 09:24:57;;;;;;;11.43;8.02;;;;;;;25.73;51.39;95278.38;4992756;28;20047;-81
2022/09/10 09:27:26;;;;;;;12.05;8.18;;;;;;;25.89;51.03;95274.47;5008178;28;20083;-81
2022/09/10 09:29:51;;;;;;;10.10;7.95;;;;;;;26.08;49.24;95273.88;5025516;28;20026;-81
2022/09/10 09:32:17;;;;;;;11.30;7.63;;;;;;;26.17;49.38;95269.44;5023362;28;20400;-82
2022/09/10 09:34:49;;;;;;;12.20;7.78;;;;;;;26.28;48.67;95266.63;5007408;28;20087;-81
2022/09/10 09:37:26;;;;;;;10.10;8.13;;;;;;;26.26;49.28;95253.16;5007878;28;20086;-80
2022/09/10 09:40:26;;;;;;;10.82;8.18;;;;;;;26.39;49.31;95249.00;5006571;28;20291;-81
2022/09/10 09:43:07;;;;;;;11.32;8.43;;;;;;;26.35;49.17;95249.84;5024206;28;20025;-80
2022/09/10 09:45:36;;;;;;;11.35;8.35;;;;;;;26.34;48.98;95242.72;5008632;28;20374;-80
2022/09/10 09:48:05;;;;;;;11.32;8.70;;;;;;;26.38;49.25;95235.53;5023329;28;20172;-80
2022/09/10 09:50:30;;;;;;;11.05;8.20;;;;;;;26.37;48.55;95232.00;5008170;28;20091;-81
2022/09/10 09:52:56;;;;;;;10.23;7.70;;;;;;;26.43;48.92;95238.28;5022842;28;20029;-80
2022/09/10 09:55:39;;;;;;;16.40;7.45;;;;;;;26.34;48.98;95231.72;5025284;28;20438;-80
2022/09/10 09:58:25;;;;;;;14.18;8.27;;;;;;;26.53;49.12;95234.66;5023029;28;20053;-81
2022/09/10 10:01:03;;;;;;;11.60;7.70;;;;;;;26.26;49.11;95220.19;5024992;28;20075;-81
2022/09/10 10:03:32;;;;;;;14.65;8.02;;;;;;;26.38;48.47;95216.31;5025145;28;20057;-80
2022/09/10 10:06:05;;;;;;;12.13;7.80;;;;;;;26.53;48.40;95218.97;5022598;28;20029;-81
2022/09/10 10:08:33;;;;;;;18.77;6.35;;;;;;;26.71;46.44;95207.56;5007938;28;20052;-80
2022/09/10 10:10:58;;;;;;;13.15;5.38;;;;;;;26.52;46.76;95191.78;5006823;28;20113;-80
2022/09/10 10:13:24;;;;;;;13.98;5.82;;;;;;;26.58;47.56;95193.38;5006906;28;20120;-80
2022/09/10 10:15:49;;;;;;;14.60;7.88;;;;;;;26.81;48.04;95190.19;5024928;28;20029;-81
2022/09/10 10:18:21;;;;;;;13.68;8.57;;;;;;;26.97;48.19;95188.91;5027219;28;20050;-80
2022/09/10 10:21:04;;;;;;;10.13;7.00;;;;;;;26.94;47.06;95174.94;5029018;28;20447;-80
2022/09/10 10:23:37;;;;;;;12.95;6.75;;;;;;;26.91;47.89;95182.66;5026451;28;20026;-81
2022/09/10 10:26:31;;;;;;;14.48;6.60;;;;;;;26.88;47.04;95165.91;5027734;28;20064;-80
2022/09/10 10:29:17;;;;;;;14.88;6.60;;;;;;;27.13;46.66;95172.31;5026874;28;20022;-80
2022/09/10 10:31:47;;;;;;;11.13;6.80;;;;;;;27.27;46.06;95159.53;5026229;28;20067;-80
2022/09/10 10:34:16;;;;;;;15.30;6.40;;;;;;;27.07;46.34;95162.47;5012763;28;20032;-82
2022/09/10 10:37:07;;;;;;;12.20;6.72;;;;;;;26.89;46.08;95167.56;5027979;28;20088;-81
2022/09/10 10:39:38;;;;;;;12.48;6.80;;;;;;;26.90;46.16;95163.69;5028686;28;20056;-79
2022/09/10 10:42:14;;;;;;;15.63;7.27;;;;;;;26.65;47.00;95160.03;5028524;28;20076;-80
2022/09/10 10:44:51;;;;;;;14.82;7.25;;;;;;;26.60;46.63;95171.09;5009857;28;20037;-81
2022/09/10 10:47:35;;;;;;;10.27;6.30;;;;;;;26.55;46.62;95158.19;5028687;28;20281;-81
2022/09/10 10:50:17;;;;;;;20.35;7.10;;;;;;;26.53;46.54;95166.72;5026474;28;20029;-81
2022/09/10 10:53:17;;;;;;;12.07;6.13;;;;;;;26.62;47.99;95171.59;5025767;28;20487;-80
2022/09/10 10:56:05;;;;;;;10.98;7.32;;;;;;;26.51;47.83;95181.84;5026883;28;20674;-82
2022/09/10 10:58:58;;;;;;;19.23;7.30;;;;;;;26.16;50.20;95177.13;5011410;28;20029;-81
2022/09/10 11:01:28;;;;;;;13.60;7.43;;;;;;;25.95;54.80;95187.38;5010100;28;20017;-80
2022/09/10 11:04:42;;;;;;;14.93;7.85;;;;;;;25.60;56.95;95200.13;5010053;28;20048;-80
2022/09/10 11:07:26;;;;;;;16.88;8.43;;;;;;;24.83;59.98;95207.31;5026424;28;20463;-81
2022/09/10 11:09:59;;;;;;;21.13;9.15;;;;;;;24.22;63.88;95226.13;5009133;28;20127;-81
2022/09/10 11:12:33;;;;;;;22.02;10.00;;;;;;;23.81;64.24;95236.63;5026162;28;20022;-80
2022/09/10 11:15:33;;;;;;;19.13;8.88;;;;;;;23.58;66.25;95240.63;4992475;28;20025;-81
2022/09/10 11:18:19;;;;;;;14.65;7.82;;;;;;;23.65;65.42;95262.28;5027177;28;20130;-80
2022/09/10 11:21:06;;;;;;;15.82;8.07;;;;;;;23.57;65.79;95289.06;5025654;28;20025;-80
2022/09/10 11:23:50;;;;;;;19.08;8.73;;;;;;;23.69;66.35;95291.59;4992883;28;20026;-81
2022/09/10 11:26:22;;;;;;;17.83;7.88;;;;;;;23.78;65.55;95271.94;5026157;28;20087;-80
2022/09/10 11:28:50;;;;;;;16.95;7.72;;;;;;;23.77;67.38;95278.50;5024249;28;20025;-79
2022/09/10 11:31:30;;;;;;;16.05;7.68;;;;;;;23.66;67.31;95283.94;5027232;28;20095;-81
2022/09/10 11:34:02;;;;;;;13.40;6.57;;;;;;;23.74;68.13;95268.91;4994360;28;20412;-80
2022/09/10 11:36:27;;;;;;;;;;;;;;;23.28;64.86;95251.06;4992873;28;20026;-80
2022/09/10 11:39:30;;;;;;;14.43;6.43;;;;;;;23.14;65.47;95249.88;5026900;28;19920;-80